sensor_id;sensor_type;location;lat;lon;timestamp;P1;durP1;ratioP1;P2;durP2;ratioP2
1471;SDS011;963;42.644;23.336;2023-04-25T00:01:10;5.00;;;3.83;;
1471;SDS011;963;42.644;23.336;2023-04-25T00:03:37;5.83;;;3.90;;
1471;SDS011;963;42.644;23.336;2023-04-25T00:06:04;4.80;;;4.40;;
1471;SDS011;963;42.644;23.336;2023-04-25T00:08:29;5.60;;;4.20;;
1471;SDS011;963;42.644;23.336;2023-04-25T00:10:56;4.27;;;3.87;;
1471;SDS011;963;42.644;23.336;2023-04-25T00:13:21;6.53;;;5.03;;
1471;SDS011;963;42.644;23.336;2023-04-25T00:15:47;5.43;;;4.20;;
1471;SDS011;963;42.644;23.336;2023-04-25T00:18:13;4.30;;;3.90;;
1471;SDS011;963;42.644;23.336;2023-04-25T00:20:39;4.80;;;4.13;;
1471;SDS011;963;42.644;23.336;2023-04-25T00:23:05;5.03;;;4.53;;
1471;SDS011;963;42.644;23.336;2023-04-25T00:25:30;5.10;;;4.23;;
1471;SDS011;963;42.644;23.336;2023-04-25T00:27:56;5.20;;;4.70;;
1471;SDS011;963;42.644;23.336;2023-04-25T00:30:21;6.87;;;5.43;;
1471;SDS011;963;42.644;23.336;2023-04-25T00:32:47;6.80;;;5.53;;
1471;SDS011;963;42.644;23.336;2023-04-25T00:35:13;5.70;;;5.10;;
1471;SDS011;963;42.644;23.336;2023-04-25T00:37:39;6.53;;;4.70;;
1471;SDS011;963;42.644;23.336;2023-04-25T00:40:05;8.10;;;6.60;;
1471;SDS011;963;42.644;23.336;2023-04-25T00:42:31;6.47;;;5.03;;
1471;SDS011;963;42.644;23.336;2023-04-25T00:44:57;7.60;;;6.03;;
1471;SDS011;963;42.644;23.336;2023-04-25T00:47:24;6.13;;;5.40;;
1471;SDS011;963;42.644;23.336;2023-04-25T00:49:50;6.13;;;5.30;;
1471;SDS011;963;42.644;23.336;2023-04-25T00:52:16;6.60;;;5.90;;
1471;SDS011;963;42.644;23.336;2023-04-25T00:54:41;7.20;;;6.20;;
1471;SDS011;963;42.644;23.336;2023-04-25T00:57:07;7.13;;;6.43;;
1471;SDS011;963;42.644;23.336;2023-04-25T00:59:33;7.67;;;6.40;;
1471;SDS011;963;42.644;23.336;2023-04-25T01:01:58;7.80;;;6.10;;
1471;SDS011;963;42.644;23.336;2023-04-25T01:04:24;7.47;;;6.60;;
1471;SDS011;963;42.644;23.336;2023-04-25T01:06:52;7.20;;;6.50;;
1471;SDS011;963;42.644;23.336;2023-04-25T01:09:18;6.40;;;5.80;;
1471;SDS011;963;42.644;23.336;2023-04-25T01:11:44;7.00;;;6.03;;
1471;SDS011;963;42.644;23.336;2023-04-25T01:14:09;8.20;;;6.90;;
1471;SDS011;963;42.644;23.336;2023-04-25T01:16:35;7.37;;;6.63;;
1471;SDS011;963;42.644;23.336;2023-04-25T01:19:01;6.83;;;6.13;;
1471;SDS011;963;42.644;23.336;2023-04-25T01:21:39;7.80;;;6.93;;
1471;SDS011;963;42.644;23.336;2023-04-25T01:24:05;7.50;;;6.60;;
1471;SDS011;963;42.644;23.336;2023-04-25T01:26:31;8.33;;;6.00;;
1471;SDS011;963;42.644;23.336;2023-04-25T01:28:58;7.50;;;6.00;;
1471;SDS011;963;42.644;23.336;2023-04-25T01:31:24;7.23;;;6.10;;
1471;SDS011;963;42.644;23.336;2023-04-25T01:33:51;8.20;;;5.73;;
1471;SDS011;963;42.644;23.336;2023-04-25T01:36:16;7.70;;;6.20;;
1471;SDS011;963;42.644;23.336;2023-04-25T01:38:42;8.70;;;5.90;;
1471;SDS011;963;42.644;23.336;2023-04-25T01:41:09;7.17;;;6.20;;
1471;SDS011;963;42.644;23.336;2023-04-25T01:43:34;10.20;;;6.73;;
1471;SDS011;963;42.644;23.336;2023-04-25T01:46:00;6.97;;;5.67;;
1471;SDS011;963;42.644;23.336;2023-04-25T01:48:26;7.90;;;6.27;;
1471;SDS011;963;42.644;23.336;2023-04-25T01:50:51;8.80;;;6.53;;
1471;SDS011;963;42.644;23.336;2023-04-25T01:53:17;8.60;;;6.60;;
1471;SDS011;963;42.644;23.336;2023-04-25T01:55:42;6.90;;;5.43;;
1471;SDS011;963;42.644;23.336;2023-04-25T01:58:08;6.37;;;5.63;;
1471;SDS011;963;42.644;23.336;2023-04-25T02:00:35;6.20;;;5.60;;
1471;SDS011;963;42.644;23.336;2023-04-25T02:03:03;10.00;;;6.67;;
1471;SDS011;963;42.644;23.336;2023-04-25T02:05:33;6.83;;;5.33;;
1471;SDS011;963;42.644;23.336;2023-04-25T02:08:05;7.10;;;5.77;;
1471;SDS011;963;42.644;23.336;2023-04-25T02:10:33;7.30;;;6.10;;
1471;SDS011;963;42.644;23.336;2023-04-25T02:12:59;6.67;;;5.73;;
1471;SDS011;963;42.644;23.336;2023-04-25T02:15:25;7.27;;;5.43;;
1471;SDS011;963;42.644;23.336;2023-04-25T02:17:50;6.13;;;5.37;;
1471;SDS011;963;42.644;23.336;2023-04-25T02:20:18;6.80;;;6.10;;
1471;SDS011;963;42.644;23.336;2023-04-25T02:22:45;6.93;;;6.20;;
1471;SDS011;963;42.644;23.336;2023-04-25T02:25:11;7.93;;;6.50;;
1471;SDS011;963;42.644;23.336;2023-04-25T02:27:36;6.53;;;5.87;;
1471;SDS011;963;42.644;23.336;2023-04-25T02:30:02;6.90;;;6.20;;
1471;SDS011;963;42.644;23.336;2023-04-25T02:32:28;9.00;;;6.67;;
1471;SDS011;963;42.644;23.336;2023-04-25T02:34:53;7.70;;;7.00;;
1471;SDS011;963;42.644;23.336;2023-04-25T02:37:19;7.87;;;6.90;;
1471;SDS011;963;42.644;23.336;2023-04-25T02:39:44;7.67;;;6.53;;
1471;SDS011;963;42.644;23.336;2023-04-25T02:42:10;7.17;;;6.17;;
1471;SDS011;963;42.644;23.336;2023-04-25T02:44:35;6.90;;;6.20;;
1471;SDS011;963;42.644;23.336;2023-04-25T02:47:01;9.10;;;7.53;;
1471;SDS011;963;42.644;23.336;2023-04-25T02:49:26;11.10;;;7.60;;
1471;SDS011;963;42.644;23.336;2023-04-25T02:51:51;8.17;;;6.83;;
1471;SDS011;963;42.644;23.336;2023-04-25T02:54:17;8.03;;;7.23;;
1471;SDS011;963;42.644;23.336;2023-04-25T02:56:42;7.43;;;6.63;;
1471;SDS011;963;42.644;23.336;2023-04-25T02:59:08;9.73;;;8.73;;
1471;SDS011;963;42.644;23.336;2023-04-25T03:01:33;9.27;;;8.33;;
1471;SDS011;963;42.644;23.336;2023-04-25T03:03:58;11.80;;;9.40;;
1471;SDS011;963;42.644;23.336;2023-04-25T03:06:24;10.53;;;9.43;;
1471;SDS011;963;42.644;23.336;2023-04-25T03:08:49;9.97;;;8.83;;
1471;SDS011;963;42.644;23.336;2023-04-25T03:11:15;11.20;;;10.00;;
1471;SDS011;963;42.644;23.336;2023-04-25T03:13:40;8.83;;;7.83;;
1471;SDS011;963;42.644;23.336;2023-04-25T03:16:05;10.20;;;8.80;;
1471;SDS011;963;42.644;23.336;2023-04-25T03:18:31;8.63;;;7.83;;
1471;SDS011;963;42.644;23.336;2023-04-25T03:20:56;10.00;;;7.83;;
1471;SDS011;963;42.644;23.336;2023-04-25T03:23:22;9.40;;;8.20;;
1471;SDS011;963;42.644;23.336;2023-04-25T03:25:47;8.57;;;7.07;;
1471;SDS011;963;42.644;23.336;2023-04-25T03:28:13;5.93;;;5.33;;
1471;SDS011;963;42.644;23.336;2023-04-25T03:30:38;6.10;;;5.30;;
1471;SDS011;963;42.644;23.336;2023-04-25T03:33:03;6.67;;;5.00;;
1471;SDS011;963;42.644;23.336;2023-04-25T03:35:29;7.53;;;6.80;;
1471;SDS011;963;42.644;23.336;2023-04-25T03:37:55;8.87;;;6.77;;
1471;SDS011;963;42.644;23.336;2023-04-25T03:40:20;8.60;;;7.50;;
1471;SDS011;963;42.644;23.336;2023-04-25T03:42:45;8.77;;;7.47;;
1471;SDS011;963;42.644;23.336;2023-04-25T03:45:11;8.30;;;7.43;;
1471;SDS011;963;42.644;23.336;2023-04-25T03:47:36;9.13;;;8.23;;
1471;SDS011;963;42.644;23.336;2023-04-25T03:50:02;7.63;;;6.93;;
1471;SDS011;963;42.644;23.336;2023-04-25T03:52:28;8.87;;;7.53;;
1471;SDS011;963;42.644;23.336;2023-04-25T03:54:53;9.37;;;7.13;;
1471;SDS011;963;42.644;23.336;2023-04-25T03:57:19;7.70;;;6.93;;
1471;SDS011;963;42.644;23.336;2023-04-25T03:59:44;8.70;;;7.07;;
1471;SDS011;963;42.644;23.336;2023-04-25T04:02:10;7.83;;;7.03;;
1471;SDS011;963;42.644;23.336;2023-04-25T04:04:35;8.20;;;7.03;;
1471;SDS011;963;42.644;23.336;2023-04-25T04:07:01;10.00;;;7.97;;
1471;SDS011;963;42.644;23.336;2023-04-25T04:09:27;8.73;;;7.47;;
1471;SDS011;963;42.644;23.336;2023-04-25T04:11:52;7.33;;;6.30;;
1471;SDS011;963;42.644;23.336;2023-04-25T04:14:18;8.63;;;7.00;;
1471;SDS011;963;42.644;23.336;2023-04-25T04:16:43;7.93;;;7.00;;
1471;SDS011;963;42.644;23.336;2023-04-25T04:19:09;8.00;;;6.93;;
1471;SDS011;963;42.644;23.336;2023-04-25T04:21:35;8.70;;;7.00;;
1471;SDS011;963;42.644;23.336;2023-04-25T04:24:01;8.40;;;7.50;;
1471;SDS011;963;42.644;23.336;2023-04-25T04:26:26;9.60;;;7.70;;
1471;SDS011;963;42.644;23.336;2023-04-25T04:28:52;8.00;;;7.20;;
1471;SDS011;963;42.644;23.336;2023-04-25T04:31:19;8.60;;;7.50;;
1471;SDS011;963;42.644;23.336;2023-04-25T04:33:47;9.23;;;7.90;;
1471;SDS011;963;42.644;23.336;2023-04-25T04:36:12;8.97;;;8.07;;
1471;SDS011;963;42.644;23.336;2023-04-25T04:38:38;8.17;;;6.50;;
1471;SDS011;963;42.644;23.336;2023-04-25T04:41:05;6.90;;;6.27;;
1471;SDS011;963;42.644;23.336;2023-04-25T04:43:31;7.73;;;6.90;;
1471;SDS011;963;42.644;23.336;2023-04-25T04:45:58;7.67;;;6.87;;
1471;SDS011;963;42.644;23.336;2023-04-25T04:48:25;8.17;;;6.47;;
1471;SDS011;963;42.644;23.336;2023-04-25T04:50:51;7.40;;;6.60;;
1471;SDS011;963;42.644;23.336;2023-04-25T04:53:16;9.67;;;6.93;;
1471;SDS011;963;42.644;23.336;2023-04-25T04:55:42;8.07;;;7.20;;
1471;SDS011;963;42.644;23.336;2023-04-25T04:58:08;8.40;;;7.43;;
1471;SDS011;963;42.644;23.336;2023-04-25T05:00:33;10.57;;;9.43;;
1471;SDS011;963;42.644;23.336;2023-04-25T05:02:59;10.30;;;7.97;;
1471;SDS011;963;42.644;23.336;2023-04-25T05:05:24;8.27;;;7.37;;
1471;SDS011;963;42.644;23.336;2023-04-25T05:07:50;10.60;;;7.93;;
1471;SDS011;963;42.644;23.336;2023-04-25T05:10:16;7.50;;;6.53;;
1471;SDS011;963;42.644;23.336;2023-04-25T05:12:43;8.47;;;7.20;;
1471;SDS011;963;42.644;23.336;2023-04-25T05:15:09;6.93;;;6.23;;
1471;SDS011;963;42.644;23.336;2023-04-25T05:17:35;9.63;;;7.50;;
1471;SDS011;963;42.644;23.336;2023-04-25T05:20:01;11.87;;;7.07;;
1471;SDS011;963;42.644;23.336;2023-04-25T05:22:26;6.90;;;6.20;;
1471;SDS011;963;42.644;23.336;2023-04-25T05:24:52;8.00;;;6.77;;
1471;SDS011;963;42.644;23.336;2023-04-25T05:27:18;7.27;;;6.57;;
1471;SDS011;963;42.644;23.336;2023-04-25T05:29:43;7.53;;;6.10;;
1471;SDS011;963;42.644;23.336;2023-04-25T05:32:09;8.67;;;6.90;;
1471;SDS011;963;42.644;23.336;2023-04-25T05:34:35;9.33;;;6.77;;
1471;SDS011;963;42.644;23.336;2023-04-25T05:37:00;6.77;;;6.07;;
1471;SDS011;963;42.644;23.336;2023-04-25T05:39:26;9.50;;;8.10;;
1471;SDS011;963;42.644;23.336;2023-04-25T05:41:51;10.93;;;7.53;;
1471;SDS011;963;42.644;23.336;2023-04-25T05:44:17;11.80;;;7.77;;
1471;SDS011;963;42.644;23.336;2023-04-25T05:46:42;40.97;;;27.37;;
1471;SDS011;963;42.644;23.336;2023-04-25T05:49:08;17.60;;;14.07;;
1471;SDS011;963;42.644;23.336;2023-04-25T05:51:33;8.73;;;7.87;;
1471;SDS011;963;42.644;23.336;2023-04-25T05:53:59;9.90;;;8.90;;
1471;SDS011;963;42.644;23.336;2023-04-25T05:56:24;10.63;;;8.67;;
1471;SDS011;963;42.644;23.336;2023-04-25T05:58:50;9.33;;;8.10;;
1471;SDS011;963;42.644;23.336;2023-04-25T06:01:16;9.50;;;8.10;;
1471;SDS011;963;42.644;23.336;2023-04-25T06:03:41;9.90;;;8.23;;
1471;SDS011;963;42.644;23.336;2023-04-25T06:06:08;8.80;;;7.63;;
1471;SDS011;963;42.644;23.336;2023-04-25T06:08:34;12.60;;;8.57;;
1471;SDS011;963;42.644;23.336;2023-04-25T06:10:59;8.10;;;6.20;;
1471;SDS011;963;42.644;23.336;2023-04-25T06:13:25;11.07;;;6.77;;
1471;SDS011;963;42.644;23.336;2023-04-25T06:15:50;13.07;;;7.87;;
1471;SDS011;963;42.644;23.336;2023-04-25T06:18:16;11.13;;;8.33;;
1471;SDS011;963;42.644;23.336;2023-04-25T06:20:41;10.93;;;8.20;;
1471;SDS011;963;42.644;23.336;2023-04-25T06:23:06;11.53;;;8.87;;
1471;SDS011;963;42.644;23.336;2023-04-25T06:25:32;11.10;;;8.67;;
1471;SDS011;963;42.644;23.336;2023-04-25T06:27:57;11.07;;;9.20;;
1471;SDS011;963;42.644;23.336;2023-04-25T06:30:23;14.07;;;8.00;;
1471;SDS011;963;42.644;23.336;2023-04-25T06:32:50;10.40;;;8.90;;
1471;SDS011;963;42.644;23.336;2023-04-25T06:35:16;10.90;;;8.97;;
1471;SDS011;963;42.644;23.336;2023-04-25T06:37:42;12.37;;;9.07;;
1471;SDS011;963;42.644;23.336;2023-04-25T06:40:07;9.80;;;8.63;;
1471;SDS011;963;42.644;23.336;2023-04-25T06:42:33;10.50;;;7.63;;
1471;SDS011;963;42.644;23.336;2023-04-25T06:44:58;9.53;;;8.00;;
1471;SDS011;963;42.644;23.336;2023-04-25T06:47:24;11.90;;;8.67;;
1471;SDS011;963;42.644;23.336;2023-04-25T06:49:49;10.97;;;7.63;;
1471;SDS011;963;42.644;23.336;2023-04-25T06:52:15;6.63;;;5.80;;
1471;SDS011;963;42.644;23.336;2023-04-25T06:54:42;8.60;;;7.67;;
1471;SDS011;963;42.644;23.336;2023-04-25T06:57:08;6.80;;;6.10;;
1471;SDS011;963;42.644;23.336;2023-04-25T06:59:33;10.07;;;7.03;;
1471;SDS011;963;42.644;23.336;2023-04-25T07:01:59;11.57;;;8.37;;
1471;SDS011;963;42.644;23.336;2023-04-25T07:04:24;12.30;;;7.43;;
1471;SDS011;963;42.644;23.336;2023-04-25T07:06:50;10.57;;;6.80;;
1471;SDS011;963;42.644;23.336;2023-04-25T07:09:15;7.07;;;6.37;;
1471;SDS011;963;42.644;23.336;2023-04-25T07:11:41;7.43;;;6.73;;
1471;SDS011;963;42.644;23.336;2023-04-25T07:14:06;7.03;;;6.33;;
1471;SDS011;963;42.644;23.336;2023-04-25T07:16:32;10.63;;;6.07;;
1471;SDS011;963;42.644;23.336;2023-04-25T07:18:57;7.60;;;6.90;;
1471;SDS011;963;42.644;23.336;2023-04-25T07:21:24;9.80;;;6.30;;
1471;SDS011;963;42.644;23.336;2023-04-25T07:23:50;7.87;;;6.90;;
1471;SDS011;963;42.644;23.336;2023-04-25T07:26:15;10.13;;;6.60;;
1471;SDS011;963;42.644;23.336;2023-04-25T07:28:41;9.30;;;7.67;;
1471;SDS011;963;42.644;23.336;2023-04-25T07:31:07;9.00;;;7.10;;
1471;SDS011;963;42.644;23.336;2023-04-25T07:33:33;6.73;;;5.70;;
1471;SDS011;963;42.644;23.336;2023-04-25T07:35:58;11.10;;;6.40;;
1471;SDS011;963;42.644;23.336;2023-04-25T07:38:24;9.63;;;6.73;;
1471;SDS011;963;42.644;23.336;2023-04-25T07:40:49;13.00;;;7.93;;
1471;SDS011;963;42.644;23.336;2023-04-25T07:43:15;10.90;;;6.70;;
1471;SDS011;963;42.644;23.336;2023-04-25T07:45:45;10.60;;;7.60;;
1471;SDS011;963;42.644;23.336;2023-04-25T07:48:11;12.60;;;6.40;;
1471;SDS011;963;42.644;23.336;2023-04-25T07:50:41;9.90;;;6.90;;
1471;SDS011;963;42.644;23.336;2023-04-25T07:53:06;12.00;;;7.50;;
1471;SDS011;963;42.644;23.336;2023-04-25T07:55:32;8.33;;;6.43;;
1471;SDS011;963;42.644;23.336;2023-04-25T07:57:57;9.27;;;6.10;;
1471;SDS011;963;42.644;23.336;2023-04-25T08:00:22;16.57;;;12.73;;
1471;SDS011;963;42.644;23.336;2023-04-25T08:02:48;17.30;;;9.67;;
1471;SDS011;963;42.644;23.336;2023-04-25T08:05:13;15.73;;;9.90;;
1471;SDS011;963;42.644;23.336;2023-04-25T08:07:40;10.40;;;7.07;;
1471;SDS011;963;42.644;23.336;2023-04-25T08:10:06;13.23;;;7.30;;
1471;SDS011;963;42.644;23.336;2023-04-25T08:12:32;7.90;;;7.07;;
1471;SDS011;963;42.644;23.336;2023-04-25T08:14:57;10.50;;;7.80;;
1471;SDS011;963;42.644;23.336;2023-04-25T08:17:23;11.00;;;7.77;;
1471;SDS011;963;42.644;23.336;2023-04-25T08:19:48;9.80;;;7.30;;
1471;SDS011;963;42.644;23.336;2023-04-25T08:22:14;10.37;;;7.40;;
1471;SDS011;963;42.644;23.336;2023-04-25T08:24:40;13.33;;;7.10;;
1471;SDS011;963;42.644;23.336;2023-04-25T08:27:06;13.93;;;7.33;;
1471;SDS011;963;42.644;23.336;2023-04-25T08:29:32;13.87;;;6.40;;
1471;SDS011;963;42.644;23.336;2023-04-25T08:31:58;14.53;;;6.40;;
1471;SDS011;963;42.644;23.336;2023-04-25T08:34:24;10.97;;;6.20;;
1471;SDS011;963;42.644;23.336;2023-04-25T08:36:50;7.00;;;4.63;;
1471;SDS011;963;42.644;23.336;2023-04-25T08:39:15;15.07;;;5.97;;
1471;SDS011;963;42.644;23.336;2023-04-25T08:41:41;10.13;;;6.67;;
1471;SDS011;963;42.644;23.336;2023-04-25T08:44:08;7.33;;;4.97;;
1471;SDS011;963;42.644;23.336;2023-04-25T08:46:35;5.57;;;3.80;;
1471;SDS011;963;42.644;23.336;2023-04-25T08:49:04;3.90;;;3.43;;
1471;SDS011;963;42.644;23.336;2023-04-25T08:51:31;5.53;;;3.57;;
1471;SDS011;963;42.644;23.336;2023-04-25T08:53:59;5.60;;;3.80;;
1471;SDS011;963;42.644;23.336;2023-04-25T08:56:35;7.27;;;4.60;;
1471;SDS011;963;42.644;23.336;2023-04-25T08:59:02;5.03;;;3.80;;
1471;SDS011;963;42.644;23.336;2023-04-25T09:01:28;4.87;;;4.00;;
1471;SDS011;963;42.644;23.336;2023-04-25T09:03:53;6.37;;;4.20;;
1471;SDS011;963;42.644;23.336;2023-04-25T09:06:19;9.90;;;7.20;;
1471;SDS011;963;42.644;23.336;2023-04-25T09:08:45;11.50;;;6.43;;
1471;SDS011;963;42.644;23.336;2023-04-25T09:11:11;7.53;;;6.23;;
1471;SDS011;963;42.644;23.336;2023-04-25T09:13:38;9.37;;;6.87;;
1471;SDS011;963;42.644;23.336;2023-04-25T09:16:03;14.30;;;7.03;;
1471;SDS011;963;42.644;23.336;2023-04-25T09:18:30;9.90;;;7.77;;
1471;SDS011;963;42.644;23.336;2023-04-25T09:21:07;9.37;;;8.10;;
1471;SDS011;963;42.644;23.336;2023-04-25T09:23:41;8.63;;;7.73;;
1471;SDS011;963;42.644;23.336;2023-04-25T09:26:09;11.30;;;8.10;;
1471;SDS011;963;42.644;23.336;2023-04-25T09:28:34;14.57;;;10.53;;
1471;SDS011;963;42.644;23.336;2023-04-25T09:31:01;8.43;;;6.80;;
1471;SDS011;963;42.644;23.336;2023-04-25T09:33:27;11.27;;;6.97;;
1471;SDS011;963;42.644;23.336;2023-04-25T09:35:56;7.60;;;6.80;;
1471;SDS011;963;42.644;23.336;2023-04-25T09:38:30;7.73;;;7.03;;
1471;SDS011;963;42.644;23.336;2023-04-25T09:40:57;8.63;;;7.13;;
1471;SDS011;963;42.644;23.336;2023-04-25T09:43:24;8.20;;;6.13;;
1471;SDS011;963;42.644;23.336;2023-04-25T09:45:50;7.77;;;5.00;;
1471;SDS011;963;42.644;23.336;2023-04-25T09:48:18;7.70;;;5.87;;
1471;SDS011;963;42.644;23.336;2023-04-25T09:50:45;7.17;;;5.50;;
1471;SDS011;963;42.644;23.336;2023-04-25T09:53:28;7.10;;;5.20;;
1471;SDS011;963;42.644;23.336;2023-04-25T09:55:55;5.13;;;4.40;;
1471;SDS011;963;42.644;23.336;2023-04-25T09:58:21;7.00;;;5.20;;
1471;SDS011;963;42.644;23.336;2023-04-25T10:00:49;8.70;;;4.73;;
1471;SDS011;963;42.644;23.336;2023-04-25T10:03:15;5.70;;;4.50;;
1471;SDS011;963;42.644;23.336;2023-04-25T10:05:44;11.97;;;6.20;;
1471;SDS011;963;42.644;23.336;2023-04-25T10:08:14;4.93;;;4.37;;
1471;SDS011;963;42.644;23.336;2023-04-25T10:10:41;8.40;;;5.83;;
1471;SDS011;963;42.644;23.336;2023-04-25T10:13:08;8.17;;;5.10;;
1471;SDS011;963;42.644;23.336;2023-04-25T10:15:36;2.67;;;2.33;;
1471;SDS011;963;42.644;23.336;2023-04-25T10:18:03;5.60;;;3.13;;
1471;SDS011;963;42.644;23.336;2023-04-25T10:20:29;2.80;;;1.87;;
1471;SDS011;963;42.644;23.336;2023-04-25T10:22:55;4.07;;;1.20;;
1471;SDS011;963;42.644;23.336;2023-04-25T10:25:28;1.70;;;1.00;;
1471;SDS011;963;42.644;23.336;2023-04-25T10:27:54;2.63;;;1.10;;
1471;SDS011;963;42.644;23.336;2023-04-25T10:30:20;2.57;;;1.40;;
1471;SDS011;963;42.644;23.336;2023-04-25T10:32:45;5.43;;;1.90;;
1471;SDS011;963;42.644;23.336;2023-04-25T10:35:13;3.33;;;2.27;;
1471;SDS011;963;42.644;23.336;2023-04-25T10:37:55;2.17;;;1.47;;
1471;SDS011;963;42.644;23.336;2023-04-25T10:40:41;4.37;;;1.63;;
1471;SDS011;963;42.644;23.336;2023-04-25T10:43:34;5.93;;;1.37;;
1471;SDS011;963;42.644;23.336;2023-04-25T10:46:02;1.80;;;1.20;;
1471;SDS011;963;42.644;23.336;2023-04-25T10:48:38;1.73;;;1.20;;
1471;SDS011;963;42.644;23.336;2023-04-25T10:51:11;3.80;;;2.43;;
1471;SDS011;963;42.644;23.336;2023-04-25T10:53:40;4.17;;;1.90;;
1471;SDS011;963;42.644;23.336;2023-04-25T10:56:09;10.10;;;1.70;;
1471;SDS011;963;42.644;23.336;2023-04-25T10:58:44;4.63;;;1.40;;
1471;SDS011;963;42.644;23.336;2023-04-25T11:01:11;5.40;;;2.17;;
1471;SDS011;963;42.644;23.336;2023-04-25T11:03:42;9.37;;;2.00;;
1471;SDS011;963;42.644;23.336;2023-04-25T11:06:15;5.60;;;1.80;;
1471;SDS011;963;42.644;23.336;2023-04-25T11:08:47;6.43;;;2.10;;
1471;SDS011;963;42.644;23.336;2023-04-25T11:11:15;2.13;;;1.10;;
1471;SDS011;963;42.644;23.336;2023-04-25T11:13:44;1.50;;;1.13;;
1471;SDS011;963;42.644;23.336;2023-04-25T11:16:13;3.17;;;1.20;;
1471;SDS011;963;42.644;23.336;2023-04-25T11:18:42;2.50;;;1.40;;
1471;SDS011;963;42.644;23.336;2023-04-25T11:21:10;6.33;;;1.90;;
1471;SDS011;963;42.644;23.336;2023-04-25T11:23:36;2.00;;;1.33;;
1471;SDS011;963;42.644;23.336;2023-04-25T11:26:02;3.20;;;1.30;;
1471;SDS011;963;42.644;23.336;2023-04-25T11:28:29;2.00;;;1.10;;
1471;SDS011;963;42.644;23.336;2023-04-25T11:30:55;2.33;;;1.20;;
1471;SDS011;963;42.644;23.336;2023-04-25T11:33:24;4.47;;;1.50;;
1471;SDS011;963;42.644;23.336;2023-04-25T11:35:50;3.40;;;1.40;;
1471;SDS011;963;42.644;23.336;2023-04-25T11:38:17;9.07;;;1.37;;
1471;SDS011;963;42.644;23.336;2023-04-25T11:40:43;9.90;;;1.43;;
1471;SDS011;963;42.644;23.336;2023-04-25T11:43:08;2.10;;;1.27;;
1471;SDS011;963;42.644;23.336;2023-04-25T11:45:36;2.67;;;1.33;;
1471;SDS011;963;42.644;23.336;2023-04-25T11:48:02;2.67;;;1.40;;
1471;SDS011;963;42.644;23.336;2023-04-25T11:50:28;1.90;;;1.40;;
1471;SDS011;963;42.644;23.336;2023-04-25T11:52:55;2.10;;;1.20;;
1471;SDS011;963;42.644;23.336;2023-04-25T11:55:22;1.70;;;1.07;;
1471;SDS011;963;42.644;23.336;2023-04-25T11:57:48;2.57;;;1.10;;
1471;SDS011;963;42.644;23.336;2023-04-25T12:00:18;4.07;;;1.37;;
1471;SDS011;963;42.644;23.336;2023-04-25T12:02:52;2.70;;;1.03;;
1471;SDS011;963;42.644;23.336;2023-04-25T12:05:18;2.23;;;1.60;;
1471;SDS011;963;42.644;23.336;2023-04-25T12:07:45;4.10;;;1.73;;
1471;SDS011;963;42.644;23.336;2023-04-25T12:10:12;2.20;;;1.10;;
1471;SDS011;963;42.644;23.336;2023-04-25T12:12:41;3.53;;;1.40;;
1471;SDS011;963;42.644;23.336;2023-04-25T12:15:12;2.30;;;1.50;;
1471;SDS011;963;42.644;23.336;2023-04-25T12:17:44;2.40;;;1.40;;
1471;SDS011;963;42.644;23.336;2023-04-25T12:20:15;3.83;;;1.50;;
1471;SDS011;963;42.644;23.336;2023-04-25T12:22:42;2.13;;;1.70;;
1471;SDS011;963;42.644;23.336;2023-04-25T12:25:10;2.33;;;1.60;;
1471;SDS011;963;42.644;23.336;2023-04-25T12:27:37;6.57;;;2.80;;
1471;SDS011;963;42.644;23.336;2023-04-25T12:30:02;2.00;;;1.63;;
1471;SDS011;963;42.644;23.336;2023-04-25T12:32:28;2.80;;;1.83;;
1471;SDS011;963;42.644;23.336;2023-04-25T12:34:54;2.17;;;1.30;;
1471;SDS011;963;42.644;23.336;2023-04-25T12:37:20;2.73;;;1.47;;
1471;SDS011;963;42.644;23.336;2023-04-25T12:39:45;1.90;;;1.50;;
1471;SDS011;963;42.644;23.336;2023-04-25T12:42:11;1.83;;;1.33;;
1471;SDS011;963;42.644;23.336;2023-04-25T12:44:37;2.33;;;1.20;;
1471;SDS011;963;42.644;23.336;2023-04-25T12:47:03;1.73;;;1.20;;
1471;SDS011;963;42.644;23.336;2023-04-25T12:49:29;2.03;;;1.10;;
1471;SDS011;963;42.644;23.336;2023-04-25T12:51:54;2.10;;;1.07;;
1471;SDS011;963;42.644;23.336;2023-04-25T12:54:19;4.43;;;1.23;;
1471;SDS011;963;42.644;23.336;2023-04-25T12:56:45;2.90;;;2.13;;
1471;SDS011;963;42.644;23.336;2023-04-25T12:59:11;4.23;;;1.70;;
1471;SDS011;963;42.644;23.336;2023-04-25T13:01:36;2.53;;;1.30;;
1471;SDS011;963;42.644;23.336;2023-04-25T13:04:02;2.70;;;1.40;;
1471;SDS011;963;42.644;23.336;2023-04-25T13:06:27;1.73;;;1.10;;
1471;SDS011;963;42.644;23.336;2023-04-25T13:08:55;2.00;;;1.00;;
1471;SDS011;963;42.644;23.336;2023-04-25T13:11:20;4.83;;;1.50;;
1471;SDS011;963;42.644;23.336;2023-04-25T13:13:45;2.57;;;1.30;;
1471;SDS011;963;42.644;23.336;2023-04-25T13:16:11;2.47;;;1.30;;
1471;SDS011;963;42.644;23.336;2023-04-25T13:18:39;3.03;;;1.53;;
1471;SDS011;963;42.644;23.336;2023-04-25T13:21:04;2.80;;;1.30;;
1471;SDS011;963;42.644;23.336;2023-04-25T13:23:30;5.47;;;1.40;;
1471;SDS011;963;42.644;23.336;2023-04-25T13:25:56;2.00;;;1.30;;
1471;SDS011;963;42.644;23.336;2023-04-25T13:28:26;3.17;;;1.70;;
1471;SDS011;963;42.644;23.336;2023-04-25T13:30:52;4.07;;;1.97;;
1471;SDS011;963;42.644;23.336;2023-04-25T13:33:19;2.60;;;1.87;;
1471;SDS011;963;42.644;23.336;2023-04-25T13:35:45;1.70;;;1.30;;
1471;SDS011;963;42.644;23.336;2023-04-25T13:38:14;2.40;;;1.70;;
1471;SDS011;963;42.644;23.336;2023-04-25T13:40:40;2.40;;;1.60;;
1471;SDS011;963;42.644;23.336;2023-04-25T13:43:05;2.70;;;1.43;;
1471;SDS011;963;42.644;23.336;2023-04-25T13:45:31;4.50;;;1.67;;
1471;SDS011;963;42.644;23.336;2023-04-25T13:47:57;2.03;;;1.50;;
1471;SDS011;963;42.644;23.336;2023-04-25T13:50:23;5.50;;;1.50;;
1471;SDS011;963;42.644;23.336;2023-04-25T13:52:48;2.80;;;1.50;;
1471;SDS011;963;42.644;23.336;2023-04-25T13:55:13;2.70;;;1.30;;
1471;SDS011;963;42.644;23.336;2023-04-25T13:57:39;1.57;;;1.00;;
1471;SDS011;963;42.644;23.336;2023-04-25T14:00:04;2.70;;;1.50;;
1471;SDS011;963;42.644;23.336;2023-04-25T14:02:37;2.57;;;1.30;;
1471;SDS011;963;42.644;23.336;2023-04-25T14:05:03;2.47;;;1.20;;
1471;SDS011;963;42.644;23.336;2023-04-25T14:07:29;3.10;;;1.30;;
1471;SDS011;963;42.644;23.336;2023-04-25T14:09:55;1.60;;;1.20;;
1471;SDS011;963;42.644;23.336;2023-04-25T14:12:22;3.60;;;1.60;;
1471;SDS011;963;42.644;23.336;2023-04-25T14:14:48;2.10;;;1.40;;
1471;SDS011;963;42.644;23.336;2023-04-25T14:17:13;1.80;;;1.20;;
1471;SDS011;963;42.644;23.336;2023-04-25T14:19:38;2.73;;;2.03;;
1471;SDS011;963;42.644;23.336;2023-04-25T14:22:08;2.30;;;1.80;;
1471;SDS011;963;42.644;23.336;2023-04-25T14:24:33;3.90;;;2.70;;
1471;SDS011;963;42.644;23.336;2023-04-25T14:26:59;2.03;;;1.83;;
1471;SDS011;963;42.644;23.336;2023-04-25T14:29:25;2.20;;;1.47;;
1471;SDS011;963;42.644;23.336;2023-04-25T14:31:51;4.17;;;1.50;;
1471;SDS011;963;42.644;23.336;2023-04-25T14:34:16;2.37;;;1.27;;
1471;SDS011;963;42.644;23.336;2023-04-25T14:36:42;2.80;;;2.20;;
1471;SDS011;963;42.644;23.336;2023-04-25T14:39:07;2.10;;;1.57;;
1471;SDS011;963;42.644;23.336;2023-04-25T14:41:33;2.90;;;1.83;;
1471;SDS011;963;42.644;23.336;2023-04-25T14:43:59;3.00;;;2.03;;
1471;SDS011;963;42.644;23.336;2023-04-25T14:46:24;4.03;;;2.30;;
1471;SDS011;963;42.644;23.336;2023-04-25T14:48:50;6.80;;;2.33;;
1471;SDS011;963;42.644;23.336;2023-04-25T14:51:16;6.73;;;3.80;;
1471;SDS011;963;42.644;23.336;2023-04-25T14:53:41;3.80;;;2.37;;
1471;SDS011;963;42.644;23.336;2023-04-25T14:56:07;3.57;;;2.30;;
1471;SDS011;963;42.644;23.336;2023-04-25T14:58:33;4.83;;;3.30;;
1471;SDS011;963;42.644;23.336;2023-04-25T15:00:59;5.03;;;2.87;;
1471;SDS011;963;42.644;23.336;2023-04-25T15:03:25;6.17;;;3.77;;
1471;SDS011;963;42.644;23.336;2023-04-25T15:05:52;5.77;;;3.53;;
1471;SDS011;963;42.644;23.336;2023-04-25T15:08:19;4.10;;;3.30;;